createdAt,value
2022-09-02T00:01:45.388Z,1.20
2022-09-02T00:04:20.150Z,1.50
2022-09-02T00:06:51.886Z,1.00
2022-09-02T00:09:24.919Z,1.23
2022-09-02T00:11:53.866Z,0.98
2022-09-02T00:14:31.179Z,1.27
2022-09-02T00:17:00.808Z,1.38
2022-09-02T00:19:29.781Z,1.08
2022-09-02T00:21:58.269Z,1.30
2022-09-02T00:24:28.580Z,1.17
2022-09-02T00:26:56.777Z,1.00
2022-09-02T00:29:26.321Z,1.00
2022-09-02T00:31:53.718Z,1.00
2022-09-02T00:34:21.107Z,0.73
2022-09-02T00:36:48.309Z,1.17
2022-09-02T00:39:15.828Z,1.23
2022-09-02T00:41:45.866Z,1.08
2022-09-02T00:44:16.171Z,1.27
2022-09-02T00:46:46.585Z,1.38
2022-09-02T00:49:16.818Z,1.67
2022-09-02T00:51:49.136Z,1.23
2022-09-02T00:54:19.382Z,1.30
2022-09-02T00:56:53.813Z,1.38
2022-09-02T00:59:46.947Z,1.85
2022-09-02T01:02:15.582Z,1.50
2022-09-02T01:04:46.709Z,1.48
2022-09-02T01:07:16.094Z,1.40
2022-09-02T01:09:45.993Z,1.48
2022-09-02T01:12:16.212Z,1.38
2022-09-02T01:14:45.993Z,1.40
2022-09-02T01:17:19.591Z,1.65
2022-09-02T01:19:51.278Z,1.20
2022-09-02T01:22:29.026Z,1.23
2022-09-02T01:25:00.778Z,1.58
2022-09-02T01:27:28.222Z,1.90
2022-09-02T01:29:58.028Z,1.63
2022-09-02T01:32:27.998Z,1.58
2022-09-02T01:34:58.109Z,1.58
2022-09-02T01:37:33.238Z,1.80
2022-09-02T01:42:32.966Z,1.60
2022-09-02T01:45:03.739Z,1.52
2022-09-02T01:47:36.220Z,1.63
2022-09-02T01:50:09.610Z,2.03
2022-09-02T01:52:37.273Z,1.65
2022-09-02T01:55:07.139Z,1.00
2022-09-02T01:57:41.563Z,1.60
2022-09-02T02:00:11.989Z,1.35
2022-09-02T02:02:44.034Z,1.52
2022-09-02T02:05:17.009Z,1.88
2022-09-02T02:07:48.415Z,1.58
2022-09-02T02:10:20.443Z,2.25
2022-09-02T02:12:50.202Z,3.08
2022-09-02T02:15:21.187Z,2.60
2022-09-02T02:17:50.345Z,2.08
2022-09-02T02:20:19.053Z,1.90
2022-09-02T02:22:47.077Z,1.52
2022-09-02T02:25:15.313Z,1.35
2022-09-02T02:27:49.189Z,1.58
2022-09-02T02:30:17.539Z,1.48
2022-09-02T02:32:47.307Z,1.95
2022-09-02T02:35:19.252Z,1.33
2022-09-02T02:37:50.560Z,1.30
2022-09-02T02:40:21.741Z,2.03
2022-09-02T02:42:53.662Z,1.10
2022-09-02T02:45:28.809Z,1.48
2022-09-02T02:48:01.138Z,1.35
2022-09-02T02:50:33.939Z,1.98
2022-09-02T02:53:03.635Z,1.92
2022-09-02T02:55:35.401Z,2.22
2022-09-02T02:58:02.881Z,1.45
2022-09-02T03:00:32.807Z,1.08
2022-09-02T03:03:08.922Z,1.65
2022-09-02T03:05:37.949Z,1.80
2022-09-02T03:08:09.056Z,2.13
2022-09-02T03:10:41.912Z,1.30
2022-09-02T03:13:12.172Z,1.25
2022-09-02T03:15:40.221Z,1.17
2022-09-02T03:18:14.298Z,1.13
2022-09-02T03:23:12.799Z,1.58
2022-09-02T03:25:46.760Z,1.20
2022-09-02T03:28:26.608Z,1.35
2022-09-02T03:30:56.574Z,0.90
2022-09-02T03:33:30.092Z,1.40
2022-09-02T03:35:57.734Z,1.40
2022-09-02T03:38:27.792Z,1.30
2022-09-02T03:40:59.910Z,1.20
2022-09-02T03:43:29.536Z,1.30
2022-09-02T03:45:58.667Z,1.02
2022-09-02T03:48:30.644Z,1.30
2022-09-02T03:50:58.013Z,1.30
2022-09-02T03:53:27.001Z,1.10
2022-09-02T03:55:58.057Z,1.50
2022-09-02T03:58:27.478Z,1.33
2022-09-02T04:00:56.437Z,0.98
2022-09-02T04:03:25.687Z,1.33
2022-09-02T04:05:53.533Z,1.48
2022-09-02T04:08:25.651Z,0.82
2022-09-02T04:10:56.294Z,1.83
2022-09-02T04:13:23.768Z,1.30
2022-09-02T04:15:51.902Z,1.27
2022-09-02T04:18:22.538Z,0.95
2022-09-02T04:20:51.726Z,1.70
2022-09-02T04:23:22.832Z,1.35
2022-09-02T04:25:50.455Z,1.05
2022-09-02T04:28:18.161Z,1.10
2022-09-02T04:30:51.330Z,1.30
2022-09-02T04:33:21.769Z,1.15
2022-09-02T04:35:50.470Z,1.70
2022-09-02T04:38:21.155Z,1.13
2022-09-02T04:40:48.724Z,1.25
2022-09-02T04:43:20.463Z,1.52
2022-09-02T04:45:50.915Z,1.45
2022-09-02T04:48:19.746Z,1.77
2022-09-02T04:50:51.191Z,1.40
2022-09-02T04:55:57.804Z,1.30
2022-09-02T04:58:27.554Z,1.38
2022-09-02T05:00:59.853Z,0.70
2022-09-02T05:03:30.423Z,0.85
2022-09-02T05:06:02.405Z,1.33
2022-09-02T05:08:32.755Z,1.40
2022-09-02T05:11:02.140Z,1.85
2022-09-02T05:13:32.255Z,1.65
2022-09-02T05:15:59.828Z,1.25
2022-09-02T05:18:31.208Z,1.65
2022-09-02T05:21:05.393Z,1.17
2022-09-02T05:23:37.715Z,1.50
2022-09-02T05:26:07.028Z,2.13
2022-09-02T05:28:35.031Z,1.30
2022-09-02T05:31:12.711Z,1.02
2022-09-02T05:33:42.321Z,1.15
2022-09-02T05:36:15.679Z,1.80
2022-09-02T05:38:47.155Z,1.35
2022-09-02T05:41:23.034Z,1.92
2022-09-02T05:43:59.117Z,1.38
2022-09-02T05:46:35.456Z,1.70
2022-09-02T05:49:09.216Z,1.60
2022-09-02T05:51:52.959Z,1.48
2022-09-02T05:54:30.528Z,1.98
2022-09-02T05:57:09.451Z,2.00
2022-09-02T05:59:42.553Z,2.17
2022-09-02T06:02:14.351Z,1.23
2022-09-02T06:04:45.434Z,1.08
2022-09-02T06:07:14.497Z,1.17
2022-09-02T06:09:45.290Z,1.25
2022-09-02T06:12:19.856Z,1.15
2022-09-02T06:14:48.770Z,1.15
2022-09-02T06:17:20.242Z,1.48
2022-09-02T06:19:53.356Z,1.38
2022-09-02T06:22:24.551Z,1.77
2022-09-02T06:24:56.145Z,0.93
2022-09-02T06:27:26.663Z,0.98
2022-09-02T06:29:55.234Z,0.88
2022-09-02T06:32:24.787Z,1.10
2022-09-02T06:35:00.384Z,1.38
2022-09-02T06:37:29.563Z,1.37
2022-09-02T06:40:00.622Z,1.05
2022-09-02T06:42:29.813Z,0.73
2022-09-02T06:45:08.379Z,0.93
2022-09-02T06:47:37.411Z,1.13
2022-09-02T06:50:04.881Z,1.17
2022-09-02T06:52:32.684Z,0.63
2022-09-02T06:55:03.598Z,1.00
2022-09-02T06:57:34.422Z,0.80
2022-09-02T07:00:09.779Z,1.00
2022-09-02T07:02:37.895Z,1.42
2022-09-02T07:05:11.653Z,1.17
2022-09-02T07:07:42.138Z,1.27
2022-09-02T07:10:16.759Z,0.90
2022-09-02T07:12:50.071Z,0.60
2022-09-02T07:15:18.226Z,0.95
2022-09-02T07:17:49.327Z,1.23
2022-09-02T07:20:24.723Z,0.70
2022-09-02T07:22:56.804Z,1.23
2022-09-02T07:25:29.849Z,1.10
2022-09-02T07:27:57.225Z,1.15
2022-09-02T07:30:25.485Z,0.80
2022-09-02T07:32:59.114Z,0.65
2022-09-02T07:35:29.615Z,0.98
2022-09-02T07:38:03.738Z,0.88
2022-09-02T07:40:32.936Z,0.60
2022-09-02T07:43:00.724Z,0.70
2022-09-02T07:45:29.964Z,0.68
2022-09-02T07:47:58.273Z,1.10
2022-09-02T07:50:27.433Z,1.15
2022-09-02T07:53:01.160Z,3.55
2022-09-02T07:55:32.097Z,0.93
2022-09-02T07:58:00.285Z,1.25
2022-09-02T08:00:30.301Z,1.20
2022-09-02T08:03:04.495Z,0.80
2022-09-02T08:05:37.760Z,0.50
2022-09-02T08:08:06.139Z,0.55
2022-09-02T08:10:35.006Z,2.50
2022-09-02T08:13:06.505Z,0.98
2022-09-02T08:15:39.071Z,0.80
2022-09-02T08:18:12.538Z,0.90
2022-09-02T08:20:54.429Z,1.63
2022-09-02T08:23:36.025Z,1.27
2022-09-02T08:26:05.665Z,0.85
2022-09-02T08:28:33.066Z,0.95
2022-09-02T08:31:07.302Z,1.20
2022-09-02T08:33:37.986Z,0.85
2022-09-02T08:36:11.763Z,0.52
2022-09-02T08:38:42.650Z,0.73
2022-09-02T08:41:17.010Z,0.63
2022-09-02T08:43:49.087Z,0.50
2022-09-02T08:46:18.530Z,0.40
2022-09-02T08:48:55.762Z,0.50
2022-09-02T08:51:38.065Z,0.40
2022-09-02T08:56:37.717Z,0.60
2022-09-02T08:59:06.384Z,2.80
2022-09-02T09:01:54.861Z,0.43
2022-09-02T09:04:59.853Z,0.47
2022-09-02T09:08:09.588Z,0.30
2022-09-02T09:10:59.042Z,0.75
2022-09-02T09:13:55.951Z,1.13
2022-09-02T09:17:08.154Z,0.77
2022-09-02T09:19:58.568Z,0.63
2022-09-02T09:22:37.472Z,0.75
2022-09-02T09:25:15.426Z,0.30
2022-09-02T09:27:46.139Z,0.50
2022-09-02T09:30:15.621Z,0.40
2022-09-02T09:32:52.320Z,0.50
2022-09-02T09:35:22.291Z,1.88
2022-09-02T09:37:52.494Z,0.57
2022-09-02T09:40:23.031Z,0.82
2022-09-02T09:43:24.561Z,0.50
2022-09-02T09:45:52.143Z,0.88
2022-09-02T09:48:36.949Z,0.47
2022-09-02T09:51:07.123Z,0.55
2022-09-02T09:53:39.032Z,0.35
2022-09-02T09:56:12.156Z,0.40
2022-09-02T09:58:42.004Z,0.40
2022-09-02T10:01:14.583Z,0.40
2022-09-02T10:03:48.696Z,0.35
2022-09-02T10:06:43.903Z,0.40
2022-09-02T10:09:15.103Z,0.43
2022-09-02T10:12:00.691Z,0.50
2022-09-02T10:14:40.229Z,0.40
2022-09-02T10:17:10.136Z,0.40
2022-09-02T10:20:22.491Z,0.70
2022-09-02T10:23:13.862Z,0.60
2022-09-02T10:25:58.661Z,0.50
2022-09-02T10:29:07.190Z,0.80
2022-09-02T10:32:08.786Z,0.90
2022-09-02T10:34:53.714Z,0.40
2022-09-02T10:37:26.980Z,0.40
2022-09-02T10:40:17.386Z,0.45
2022-09-02T10:42:47.917Z,0.30
2022-09-02T10:45:18.106Z,0.43
2022-09-02T10:47:59.031Z,0.80
2022-09-02T10:50:35.143Z,0.60
2022-09-02T10:53:43.015Z,2.00
2022-09-02T10:56:29.505Z,0.50
2022-09-02T11:01:41.791Z,1.00
2022-09-02T11:04:25.365Z,0.40
2022-09-02T11:07:04.544Z,0.40
2022-09-02T11:09:43.414Z,0.52
2022-09-02T11:12:15.887Z,0.55
2022-09-02T11:14:52.279Z,0.40
2022-09-02T11:17:27.785Z,0.35
2022-09-02T11:20:34.077Z,0.20
2022-09-02T11:23:19.836Z,0.30
2022-09-02T11:26:17.010Z,0.90
2022-09-02T11:29:07.755Z,0.43
2022-09-02T11:31:53.998Z,0.30
2022-09-02T11:34:46.187Z,0.32
2022-09-02T11:37:34.980Z,0.22
2022-09-02T11:40:33.346Z,0.17
2022-09-02T11:43:16.943Z,0.30
2022-09-02T11:45:47.559Z,0.15
2022-09-02T11:48:35.403Z,0.30
2022-09-02T11:51:17.241Z,0.75
2022-09-02T11:53:46.986Z,0.40
2022-09-02T11:56:21.960Z,0.30
2022-09-02T11:58:56.034Z,0.38
2022-09-02T12:01:43.985Z,0.50
2022-09-02T12:07:09.559Z,0.60
2022-09-02T12:09:55.301Z,0.20
2022-09-02T12:12:38.361Z,0.70
2022-09-02T12:15:17.960Z,0.20
2022-09-02T12:17:50.459Z,0.95
2022-09-02T12:20:43.299Z,0.43
2022-09-02T12:23:53.148Z,0.30
2022-09-02T12:26:50.761Z,0.30
2022-09-02T12:29:23.105Z,0.50
2022-09-02T12:31:55.018Z,0.45
2022-09-02T12:34:25.113Z,0.30
2022-09-02T12:36:56.354Z,0.43
2022-09-02T12:39:23.587Z,0.30
2022-09-02T12:42:12.644Z,0.30
2022-09-02T12:45:01.174Z,0.40
2022-09-02T12:47:49.482Z,0.40
2022-09-02T12:50:50.684Z,0.30
2022-09-02T12:53:23.680Z,0.20
2022-09-02T12:55:57.986Z,0.55
2022-09-02T12:58:33.734Z,0.20
2022-09-02T13:01:13.587Z,0.30
2022-09-02T13:04:22.848Z,0.60
2022-09-02T13:07:16.162Z,0.30
2022-09-02T13:10:05.131Z,0.20
2022-09-02T13:13:10.262Z,0.52
2022-09-02T13:15:56.438Z,0.95
2022-09-02T13:18:53.114Z,0.20
2022-09-02T13:21:26.075Z,0.75
2022-09-02T13:24:05.722Z,0.30
2022-09-02T13:26:50.627Z,0.22
2022-09-02T13:30:13.947Z,0.60
2022-09-02T13:32:41.790Z,0.50
2022-09-02T13:35:23.960Z,0.28
2022-09-02T13:40:35.325Z,0.30
2022-09-02T13:43:05.215Z,0.35
2022-09-02T13:45:37.901Z,0.30
2022-09-02T13:48:11.120Z,0.50
2022-09-02T13:50:44.327Z,0.32
2022-09-02T13:54:05.135Z,0.52
2022-09-02T13:56:10.060Z,0.40
2022-09-02T13:58:52.666Z,0.20
2022-09-02T14:01:42.057Z,0.82
2022-09-02T14:04:18.118Z,0.20
2022-09-02T14:06:50.125Z,0.40
2022-09-02T14:09:27.021Z,0.38
2022-09-02T14:12:01.864Z,0.30
2022-09-02T14:14:33.076Z,0.30
2022-09-02T14:19:52.688Z,0.20
2022-09-02T14:22:30.502Z,0.20
2022-09-02T14:25:00.441Z,0.20
2022-09-02T14:27:34.080Z,0.20
2022-09-02T14:30:07.171Z,0.32
2022-09-02T14:32:40.446Z,0.30
2022-09-02T14:35:16.891Z,0.50
2022-09-02T14:37:55.683Z,0.40
2022-09-02T14:40:37.110Z,0.73
2022-09-02T14:43:11.599Z,0.63
2022-09-02T14:45:47.795Z,0.80
2022-09-02T14:48:24.175Z,0.30
2022-09-02T14:51:02.902Z,0.82
2022-09-02T14:53:31.786Z,0.70
2022-09-02T14:56:01.696Z,0.95
2022-09-02T14:58:33.772Z,0.40
2022-09-02T15:01:02.345Z,0.63
2022-09-02T15:03:31.141Z,0.45
2022-09-02T15:05:58.648Z,0.40
2022-09-02T15:08:26.442Z,0.80
2022-09-02T15:10:54.767Z,0.60
2022-09-02T15:13:29.187Z,0.32
2022-09-02T15:16:01.211Z,0.30
2022-09-02T15:18:32.759Z,0.40
2022-09-02T15:23:34.612Z,0.35
2022-09-02T15:26:05.260Z,0.50
2022-09-02T15:28:33.292Z,0.65
2022-09-02T15:31:01.885Z,0.30
2022-09-02T15:33:29.772Z,0.80
2022-09-02T15:36:12.688Z,0.28
2022-09-02T15:38:44.907Z,0.90
2022-09-02T15:41:21.351Z,1.67
2022-09-02T15:43:50.766Z,3.03
2022-09-02T15:46:25.912Z,2.17
2022-09-02T15:49:01.736Z,1.38
2022-09-02T15:51:35.079Z,0.30
2022-09-02T15:54:15.496Z,0.70
2022-09-02T15:56:45.423Z,0.50
2022-09-02T15:59:22.150Z,0.90
2022-09-02T16:01:52.032Z,0.70
2022-09-02T16:04:22.391Z,1.02
2022-09-02T16:06:52.851Z,0.40
2022-09-02T16:09:25.140Z,0.30
2022-09-02T16:11:56.309Z,0.60
2022-09-02T16:14:26.626Z,0.25
2022-09-02T16:16:57.534Z,0.50
2022-09-02T16:19:29.655Z,0.35
2022-09-02T16:21:57.937Z,0.55
2022-09-02T16:24:25.200Z,0.50
2022-09-02T16:26:54.810Z,0.50
2022-09-02T16:29:26.956Z,0.73
2022-09-02T16:32:23.789Z,0.40
2022-09-02T16:34:45.383Z,1.25
2022-09-02T16:37:14.872Z,0.50
2022-09-02T16:39:42.655Z,0.65
2022-09-02T16:42:10.198Z,0.88
2022-09-02T16:44:37.580Z,0.60
2022-09-02T16:47:04.932Z,0.73
2022-09-02T16:49:34.523Z,0.65
2022-09-02T16:52:01.811Z,1.17
2022-09-02T16:54:33.605Z,1.00
2022-09-02T16:57:06.286Z,0.80
2022-09-02T16:59:33.552Z,1.60
2022-09-02T17:02:01.028Z,1.60
2022-09-02T17:04:29.484Z,1.55
2022-09-02T17:06:57.161Z,0.88
2022-09-02T17:09:24.707Z,1.48
2022-09-02T17:11:54.509Z,1.70
2022-09-02T17:14:21.858Z,1.20
2022-09-02T17:16:53.643Z,1.10
2022-09-02T17:21:54.422Z,1.45
2022-09-02T17:24:32.093Z,1.40
2022-09-02T17:27:01.139Z,1.55
2022-09-02T17:32:19.990Z,1.00
2022-09-02T17:34:51.005Z,1.17
2022-09-02T17:37:19.127Z,3.17
2022-09-02T17:39:52.163Z,0.77
2022-09-02T17:42:21.461Z,1.33
2022-09-02T17:44:50.975Z,1.00
2022-09-02T17:47:22.658Z,1.10
2022-09-02T17:49:54.839Z,1.13
2022-09-02T17:52:24.915Z,0.90
2022-09-02T17:54:53.711Z,1.60
2022-09-02T17:57:42.609Z,1.80
2022-09-02T18:00:19.017Z,1.55
2022-09-02T18:03:34.971Z,1.73
2022-09-02T18:06:15.203Z,2.88
2022-09-02T18:08:45.758Z,1.52
2022-09-02T18:11:13.510Z,2.13
2022-09-02T18:14:06.879Z,1.95
2022-09-02T18:16:51.974Z,2.00
2022-09-02T18:20:00.907Z,1.48
2022-09-02T18:22:46.769Z,1.33
2022-09-02T18:25:53.334Z,1.60
2022-09-02T18:28:50.507Z,1.70
2022-09-02T18:31:52.199Z,1.00
2022-09-02T18:35:03.522Z,2.00
2022-09-02T18:38:09.810Z,1.77
2022-09-02T18:41:05.866Z,2.00
2022-09-02T18:43:55.685Z,1.23
2022-09-02T18:46:29.166Z,1.30
2022-09-02T18:49:03.785Z,1.23
2022-09-02T18:51:43.188Z,1.88
2022-09-02T18:54:22.988Z,1.93
2022-09-02T18:56:57.539Z,1.45
2022-09-02T18:59:52.756Z,1.65
2022-09-02T19:02:50.963Z,0.98
2022-09-02T19:05:23.274Z,0.90
2022-09-02T19:08:23.865Z,1.40
2022-09-02T19:11:00.981Z,1.63
2022-09-02T19:13:42.111Z,0.95
2022-09-02T19:16:11.792Z,0.80
2022-09-02T19:18:41.169Z,1.65
2022-09-02T19:21:13.195Z,0.93
2022-09-02T19:23:41.331Z,1.00
2022-09-02T19:26:11.488Z,0.70
2022-09-02T19:28:45.439Z,0.98
2022-09-02T19:31:20.082Z,1.23
2022-09-02T19:33:52.762Z,1.20
2022-09-02T19:36:31.418Z,1.15
2022-09-02T19:39:00.071Z,1.20
2022-09-02T19:41:30.319Z,1.13
2022-09-02T19:43:57.682Z,0.90
2022-09-02T19:47:06.924Z,0.90
2022-09-02T19:49:14.510Z,1.13
2022-09-02T19:51:44.351Z,1.65
2022-09-02T19:54:13.908Z,1.15
2022-09-02T19:59:11.262Z,0.90
2022-09-02T20:01:43.226Z,0.95
2022-09-02T20:04:11.738Z,0.85
2022-09-02T20:06:39.546Z,1.00
2022-09-02T20:09:07.100Z,0.77
2022-09-02T20:11:35.087Z,1.02
2022-09-02T20:14:04.981Z,0.85
2022-09-02T20:16:33.265Z,1.25
2022-09-02T20:19:03.779Z,0.57
2022-09-02T20:21:40.196Z,1.10
2022-09-02T20:24:09.838Z,1.00
2022-09-02T20:27:00.343Z,0.85
2022-09-02T20:30:11.849Z,1.42
2022-09-02T20:33:00.214Z,1.05
2022-09-02T20:35:38.595Z,1.00
2022-09-02T20:38:46.108Z,0.80
2022-09-02T20:41:28.066Z,0.80
2022-09-02T20:44:31.056Z,0.80
2022-09-02T20:47:11.491Z,1.65
2022-09-02T20:52:47.538Z,1.27
2022-09-02T20:55:25.879Z,0.93
2022-09-02T20:58:17.453Z,1.13
2022-09-02T21:01:07.698Z,1.00
2022-09-02T21:04:03.660Z,0.90
2022-09-02T21:06:36.630Z,1.20
2022-09-02T21:09:24.266Z,0.90
2022-09-02T21:12:03.801Z,1.42
2022-09-02T21:14:40.398Z,1.70
2022-09-02T21:17:12.665Z,2.70
2022-09-02T21:19:54.658Z,1.20
2022-09-02T21:22:28.992Z,1.65
2022-09-02T21:25:05.870Z,0.90
2022-09-02T21:27:45.096Z,1.50
2022-09-02T21:30:23.749Z,1.60
2022-09-02T21:33:05.656Z,1.48
2022-09-02T21:35:42.022Z,1.38
2022-09-02T21:38:22.026Z,0.93
2022-09-02T21:41:04.023Z,1.50
2022-09-02T21:44:14.065Z,1.42
2022-09-02T21:47:13.456Z,1.52
2022-09-02T21:50:10.802Z,1.10
2022-09-02T21:52:47.334Z,1.70
2022-09-02T21:55:55.576Z,1.38
2022-09-02T21:59:03.573Z,1.90
2022-09-02T22:01:58.034Z,1.50
2022-09-02T22:05:00.265Z,2.63
2022-09-02T22:07:42.145Z,1.15
2022-09-02T22:10:36.417Z,1.38
2022-09-02T22:13:04.061Z,1.10
2022-09-02T22:15:58.048Z,1.90
2022-09-02T22:18:39.456Z,0.93
2022-09-02T22:21:40.879Z,1.30
2022-09-02T22:24:13.171Z,1.40
2022-09-02T22:27:02.867Z,1.15
2022-09-02T22:30:09.192Z,1.55
2022-09-02T22:32:40.871Z,1.00
2022-09-02T22:35:25.149Z,1.80
2022-09-02T22:37:56.842Z,1.30
2022-09-02T22:40:32.496Z,1.77
2022-09-02T22:43:09.132Z,1.77
2022-09-02T22:46:04.514Z,1.83
2022-09-02T22:48:58.776Z,1.63
2022-09-02T22:51:54.626Z,1.55
2022-09-02T22:54:22.025Z,1.70
2022-09-02T22:57:24.678Z,1.55
2022-09-02T23:00:08.386Z,1.70
2022-09-02T23:02:46.521Z,1.50
2022-09-02T23:05:41.587Z,1.42
2022-09-02T23:08:09.840Z,1.50
2022-09-02T23:11:07.171Z,1.95
2022-09-02T23:13:57.959Z,1.80
2022-09-02T23:16:46.790Z,2.00
2022-09-02T23:19:56.494Z,1.40
2022-09-02T23:22:41.687Z,1.77
2022-09-02T23:25:23.876Z,1.88
2022-09-02T23:28:17.154Z,1.50
2022-09-02T23:31:10.266Z,1.77
2022-09-02T23:34:07.009Z,2.58
2022-09-02T23:36:52.307Z,1.45
2022-09-02T23:39:45.649Z,1.70
2022-09-02T23:42:20.597Z,1.85
2022-09-02T23:44:49.550Z,1.30
2022-09-02T23:47:53.291Z,1.73
2022-09-02T23:50:45.054Z,1.73
2022-09-02T23:53:24.307Z,1.40
2022-09-02T23:56:13.261Z,1.30
2022-09-02T23:58:43.395Z,4.97
